Aviation Digital Data Service (ADDS)

Output produced by METARs form (0059 UTC 22 September 2017)
found at http://www.aviationweather.gov/adds/metars/
 
TAF SKBQ 212300Z 2200/2224 24008KT 9999 FEW017 BKN200 
     TEMPO 2209/2212 00000KT 5000 BCFG SCT012 
     BECMG 2215/2216 15010KT SCT020 BKN090 TX34/2218Z TN25/2211Z
       
TAF SKBO 212300Z 2200/2224 VRB02KT 9999 SCT020 SCT200 
     PROB40 
     TEMPO 2202/2204 8000 DZ SCT017TCU BKN090 
     TEMPO 2214/2220 17008KT 
     TEMPO 2220/2222 31010KT 8000 TSRA SCT017CB BKN090 TX21/2218Z TN09/2211
       
TAF SKBG 212300Z 2200/2224 33007KT 9999 SCT017 SCT090 
     TEMPO 2204/2207 8000 DZ SCT015TCU BKN080 TX26/2218Z TN17/2211Z
       
TAF SKCL 212300Z 2200/2224 02006KT 9999 FEW025 BKN200 
     TEMPO 2218/2223 32010KT TX33/2219Z TN19/2210Z
       
TAF SKCG 212300Z 2200/2224 01007KT 9999 FEW017 SCT090 
     TEMPO 2207/2214 11006KT 
     BECMG 2214/2215 32008KT TX32/2218Z TN25/2211Z
       
TAF SKCC 212300Z 2200/2224 21008KT 9999 SCT023 SCT100 TX34/2219Z TN24/2211Z
       
TAF SKLT 212300Z 2200/2224 00000KT 9999 FEW020 BKN100 
     TEMPO 2206/2213 2000 BR SCT010 
     TEMPO 2215/2221 24008KT SCT020 TX32/2218Z TN22/2211Z
       
TAF SKRG 212300Z 2200/2224 VRB02KT 9999 SCT020 SCT090 
     TEMPO 2203/2207 7000 DZ S0CT015TCU 
     TEMPO 2208/2213 5000 BCFG BKN010 
     BECMG 2215/2216 22008KT FEW020 SCT200 TX24/2219Z TN11/2211Z
       
TAF SKPE 221700Z 2118/2218 07008KT 9999 SCT015 BKN080 
     PROB40 
     TEMPO 2119/2121 8000 DZRA 
     PROB40 
     TEMPO 2202/2204 7000 SHRA SCT013TCU 
     PROB30 
     TEMPO 2213/2215 7000 DZRA SCT013TCU TX30/2119Z TN26/2211Z
       
TAF SKSP 212300Z 2200/2224 VRB02KT 9999 FEW017 BKN090 
     TEMPO 2206/2210 8000 DZ SCT017TCU 
     TEMPO 2217/2219 8000 DZ SCT017 TX30/2218Z TN25/2211Z